Time;durP1;ratioP1;P1;durP2;ratioP2;P2;SDS_P1;SDS_P2;PMS_P1;PMS_P2;Temp;Humidity;BMP_temperature;BMP_pressure;BME280_temperature;BME280_humidity;BME280_pressure;Samples;Min_cycle;Max_cycle;Signal;HPM_P1;HPM_P2
2023/05/19 00:01:23;;;;;;;2.78;1.77;;;17.70;57.20;;;;;;5072599;28;20166;-60
2023/05/19 00:03:56;;;;;;;4.28;2.40;;;17.70;57.20;;;;;;5073085;28;20675;-60
2023/05/19 00:06:32;;;;;;;2.40;2.20;;;17.70;57.20;;;;;;5073634;28;20175;-60
2023/05/19 00:09:02;;;;;;;2.35;1.88;;;17.70;57.20;;;;;;5074042;28;20259;-60
2023/05/19 00:11:28;;;;;;;2.72;2.30;;;17.70;57.20;;;;;;5072936;28;20193;-59
2023/05/19 00:13:54;;;;;;;2.13;1.80;;;17.70;57.20;;;;;;5073792;28;20174;-60
2023/05/19 00:16:21;;;;;;;2.72;2.20;;;17.70;57.30;;;;;;5073336;28;20217;-60
2023/05/19 00:18:47;;;;;;;2.13;1.92;;;17.70;57.20;;;;;;5072873;28;20217;-60
2023/05/19 00:21:12;;;;;;;2.20;2.00;;;17.70;57.20;;;;;;5073141;28;20224;-60
2023/05/19 00:23:38;;;;;;;2.58;2.00;;;17.70;57.30;;;;;;5073748;28;20584;-60
2023/05/19 00:26:03;;;;;;;2.28;1.95;;;17.70;57.30;;;;;;5072825;28;20190;-60
2023/05/19 00:28:29;;;;;;;2.70;2.20;;;17.70;57.30;;;;;;5073286;28;20185;-60
2023/05/19 00:30:55;;;;;;;2.30;2.10;;;17.70;57.30;;;;;;5073433;28;20196;-60
2023/05/19 00:33:20;;;;;;;2.63;2.20;;;17.70;57.30;;;;;;5072216;28;20220;-60
2023/05/19 00:35:46;;;;;;;2.38;2.17;;;17.70;57.30;;;;;;5073064;28;20309;-61
2023/05/19 00:38:11;;;;;;;3.30;2.13;;;17.60;57.30;;;;;;5073071;28;20222;-60
2023/05/19 00:40:37;;;;;;;2.47;2.00;;;17.70;57.30;;;;;;5072603;28;20257;-60
2023/05/19 00:43:04;;;;;;;2.25;1.90;;;17.60;57.30;;;;;;5073161;28;20656;-60
2023/05/19 00:45:29;;;;;;;2.38;2.17;;;17.60;57.30;;;;;;5073170;28;20205;-60
2023/05/19 00:47:55;;;;;;;2.20;2.00;;;17.60;57.30;;;;;;5072285;28;20577;-60
2023/05/19 00:50:22;;;;;;;2.17;2.03;;;17.60;57.30;;;;;;5073439;28;20200;-60
2023/05/19 00:52:48;;;;;;;2.92;1.80;;;17.60;57.30;;;;;;5071479;28;20170;-60
2023/05/19 00:55:14;;;;;;;4.05;2.22;;;17.60;57.30;;;;;;5072923;28;20656;-60
2023/05/19 00:57:40;;;;;;;2.08;1.88;;;17.60;57.30;;;;;;5073175;28;20733;-60
2023/05/19 01:00:06;;;;;;;2.35;2.15;;;17.60;57.30;;;;;;5070831;28;20705;-61
2023/05/19 01:02:31;;;;;;;3.38;2.40;;;17.60;57.30;;;;;;5072839;28;20181;-60
2023/05/19 01:04:57;;;;;;;2.55;1.90;;;17.60;57.30;;;;;;5071804;28;20540;-60
2023/05/19 01:07:24;;;;;;;2.58;1.98;;;17.60;57.30;;;;;;5070895;28;20181;-60
2023/05/19 01:09:50;;;;;;;3.72;2.10;;;17.60;57.30;;;;;;5070865;28;20309;-59
2023/05/19 01:12:15;;;;;;;2.53;2.33;;;17.60;57.30;;;;;;5072859;28;20183;-60
2023/05/19 01:14:41;;;;;;;2.42;2.13;;;17.60;57.40;;;;;;5072109;28;20173;-60
2023/05/19 01:17:13;;;;;;;2.08;1.90;;;17.50;57.30;;;;;;5071289;28;20257;-60
2023/05/19 01:20:05;;;;;;;2.42;1.83;;;17.60;57.40;;;;;;5071740;28;20224;-59
2023/05/19 01:22:42;;;;;;;2.50;2.17;;;17.60;57.40;;;;;;5061172;28;20174;-59
2023/05/19 01:25:56;;;;;;;2.45;2.00;;;17.50;57.30;;;;;;5072509;28;20173;-59
2023/05/19 01:28:54;;;;;;;2.85;2.00;;;17.50;57.30;;;;;;5052062;28;20312;-60
2023/05/19 01:31:22;;;;;;;1.98;1.75;;;17.50;57.30;;;;;;5071500;28;20175;-60
2023/05/19 01:33:48;;;;;;;2.80;2.10;;;17.50;57.40;;;;;;5072582;28;20174;-60
2023/05/19 01:36:13;;;;;;;1.90;1.80;;;17.50;57.30;;;;;;5071501;28;20229;-61
2023/05/19 01:38:39;;;;;;;2.55;2.03;;;17.50;57.30;;;;;;5071600;28;20225;-60
2023/05/19 01:41:05;;;;;;;2.47;2.08;;;17.50;57.40;;;;;;5071387;28;20166;-60
2023/05/19 01:43:30;;;;;;;2.85;2.08;;;17.50;57.40;;;;;;5072057;28;20178;-60
2023/05/19 01:45:57;;;;;;;2.55;2.25;;;17.50;57.40;;;;;;5071307;28;20170;-60
2023/05/19 01:48:23;;;;;;;2.15;1.90;;;17.50;57.40;;;;;;5070957;28;20181;-60
2023/05/19 01:50:48;;;;;;;2.67;2.15;;;17.50;57.40;;;;;;5072022;28;20175;-59
2023/05/19 01:53:14;;;;;;;3.03;2.00;;;17.50;57.40;;;;;;5072359;28;20166;-60
2023/05/19 01:55:49;;;;;;;3.08;1.95;;;17.50;57.40;;;;;;5072712;28;20191;-59
2023/05/19 01:58:48;;;;;;;2.92;2.10;;;17.50;57.40;;;;;;5071551;28;20174;-60
2023/05/19 02:01:39;;;;;;;2.13;1.92;;;17.50;57.40;;;;;;5069171;28;20261;-60
2023/05/19 02:04:34;;;;;;;2.85;2.22;;;17.50;57.40;;;;;;5070297;28;20190;-60
2023/05/19 02:07:23;;;;;;;3.67;1.98;;;17.50;57.40;;;;;;5072296;28;20174;-60
2023/05/19 02:10:04;;;;;;;2.33;2.05;;;17.50;57.40;;;;;;5071563;28;20189;-60
2023/05/19 02:12:39;;;;;;;2.10;1.90;;;17.50;57.40;;;;;;5072527;28;20244;-59
2023/05/19 02:15:16;;;;;;;2.20;2.00;;;17.50;57.40;;;;;;5071937;28;20177;-59
2023/05/19 02:17:50;;;;;;;2.05;1.85;;;17.40;57.30;;;;;;5071639;28;20201;-59
2023/05/19 02:20:16;;;;;;;3.47;2.05;;;17.40;57.40;;;;;;5071927;28;20220;-60
2023/05/19 02:22:41;;;;;;;2.70;2.28;;;17.40;57.30;;;;;;5076097;28;20562;-60
2023/05/19 02:25:07;;;;;;;3.03;2.10;;;17.40;57.40;;;;;;5074942;28;20185;-59
2023/05/19 02:27:33;;;;;;;2.45;2.17;;;17.40;57.40;;;;;;5075788;28;20174;-59
2023/05/19 02:29:59;;;;;;;1.80;1.70;;;17.40;57.30;;;;;;5075674;28;20316;-60
2023/05/19 02:32:24;;;;;;;3.33;2.42;;;17.40;57.30;;;;;;5074613;28;20225;-60
2023/05/19 02:34:52;;;;;;;2.22;2.03;;;17.40;57.30;;;;;;5075684;28;20277;-61
2023/05/19 02:37:17;;;;;;;3.22;1.90;;;17.40;57.40;;;;;;5075534;28;20178;-60
2023/05/19 02:39:43;;;;;;;2.35;1.77;;;17.40;57.40;;;;;;5074997;28;20603;-60
2023/05/19 02:42:09;;;;;;;2.28;1.90;;;17.40;57.40;;;;;;5075173;28;20766;-60
2023/05/19 02:44:34;;;;;;;2.15;1.95;;;17.40;57.30;;;;;;5075388;28;20182;-60
2023/05/19 02:47:00;;;;;;;2.03;1.85;;;17.40;57.40;;;;;;5074706;28;20261;-60
2023/05/19 02:49:26;;;;;;;3.85;2.10;;;17.40;57.40;;;;;;5075278;28;20181;-60
2023/05/19 02:51:52;;;;;;;2.42;2.22;;;17.40;57.40;;;;;;5075610;28;20624;-60
2023/05/19 02:54:17;;;;;;;2.80;1.83;;;17.40;57.40;;;;;;5074382;28;20200;-60
2023/05/19 02:56:43;;;;;;;4.07;2.38;;;17.40;57.50;;;;;;5075415;28;20661;-60
2023/05/19 02:59:08;;;;;;;2.28;2.08;;;17.40;57.40;;;;;;5074957;28;20209;-60
2023/05/19 03:01:36;;;;;;;2.42;1.70;;;17.40;57.40;;;;;;5074401;28;20185;-60
2023/05/19 03:04:01;;;;;;;2.97;2.13;;;17.40;57.40;;;;;;5075105;28;20710;-60
2023/05/19 03:06:28;;;;;;;1.65;1.55;;;17.40;57.50;;;;;;5074079;28;20178;-60
2023/05/19 03:08:53;;;;;;;2.00;1.80;;;17.30;57.40;;;;;;5075254;28;20220;-60
2023/05/19 03:11:19;;;;;;;2.53;1.85;;;17.30;57.40;;;;;;5074849;28;20170;-59
2023/05/19 03:13:45;;;;;;;3.15;2.00;;;17.30;57.40;;;;;;5074149;28;20244;-59
2023/05/19 03:16:10;;;;;;;2.05;1.70;;;17.30;57.40;;;;;;5074358;28;20509;-59
2023/05/19 03:18:36;;;;;;;2.53;2.13;;;17.30;57.40;;;;;;5075003;28;20745;-60
2023/05/19 03:21:02;;;;;;;2.20;1.83;;;17.30;57.40;;;;;;5074320;28;20190;-59
2023/05/19 03:23:27;;;;;;;2.22;1.75;;;17.30;57.40;;;;;;5074657;28;20170;-59
2023/05/19 03:25:54;;;;;;;2.42;1.92;;;17.30;57.50;;;;;;5074889;28;20269;-60
2023/05/19 03:28:20;;;;;;;2.35;2.15;;;17.30;57.40;;;;;;5073528;28;20232;-59
2023/05/19 03:30:48;;;;;;;4.18;2.30;;;17.30;57.40;;;;;;5074766;28;20170;-60
2023/05/19 03:33:14;;;;;;;2.50;2.05;;;17.30;57.40;;;;;;5073459;28;20232;-60
2023/05/19 03:35:39;;;;;;;2.67;1.65;;;17.30;57.30;;;;;;5073677;28;20582;-60
2023/05/19 03:38:05;;;;;;;2.30;2.00;;;17.30;57.40;;;;;;5074283;28;20178;-60
2023/05/19 03:40:30;;;;;;;2.13;1.75;;;17.30;57.40;;;;;;5074503;28;20210;-60
2023/05/19 03:42:56;;;;;;;2.15;2.00;;;17.30;57.40;;;;;;5073609;28;20177;-60
2023/05/19 03:45:22;;;;;;;2.78;1.75;;;17.30;57.40;;;;;;5074229;28;20182;-60
2023/05/19 03:47:47;;;;;;;4.10;2.03;;;17.20;57.30;;;;;;5074124;28;20220;-60
2023/05/19 03:50:13;;;;;;;2.67;2.00;;;17.30;57.40;;;;;;5073228;28;20183;-60
2023/05/19 03:52:38;;;;;;;2.00;1.70;;;17.30;57.50;;;;;;5074257;28;20170;-60
2023/05/19 03:55:05;;;;;;;2.83;2.28;;;17.30;57.40;;;;;;5074230;28;20192;-60
2023/05/19 03:57:32;;;;;;;2.33;2.03;;;17.30;57.40;;;;;;5073209;28;20174;-60
2023/05/19 03:59:58;;;;;;;2.17;1.95;;;17.30;57.40;;;;;;5073783;28;20210;-60
2023/05/19 04:02:23;;;;;;;2.25;2.05;;;17.30;57.30;;;;;;5073896;28;20177;-60
2023/05/19 04:04:49;;;;;;;2.00;1.80;;;17.30;57.40;;;;;;5073298;28;20668;-60
2023/05/19 04:07:15;;;;;;;1.83;1.67;;;17.30;57.40;;;;;;5073530;28;20178;-60
2023/05/19 04:09:41;;;;;;;2.00;1.80;;;17.20;57.40;;;;;;5073103;28;20190;-59
2023/05/19 04:12:06;;;;;;;3.03;2.00;;;17.30;57.40;;;;;;5073494;28;20563;-59
2023/05/19 04:14:32;;;;;;;3.58;2.25;;;17.20;57.40;;;;;;5073566;28;20174;-59
2023/05/19 04:16:57;;;;;;;2.40;2.13;;;17.30;57.40;;;;;;5073164;28;20174;-60
2023/05/19 04:19:23;;;;;;;2.80;2.03;;;17.30;57.40;;;;;;5073358;28;20210;-60
2023/05/19 04:21:49;;;;;;;3.05;1.92;;;17.30;57.40;;;;;;5073612;28;20633;-59
2023/05/19 04:24:15;;;;;;;2.95;2.00;;;17.30;57.50;;;;;;5072600;28;20183;-59
2023/05/19 04:26:44;;;;;;;2.03;1.90;;;17.30;57.40;;;;;;5073436;27;20687;-59
2023/05/19 04:29:12;;;;;;;2.22;2.03;;;17.30;57.40;;;;;;5072003;28;20641;-60
2023/05/19 04:31:40;;;;;;;2.78;2.05;;;17.30;57.30;;;;;;5072889;28;20174;-60
2023/05/19 04:34:09;;;;;;;3.15;2.30;;;17.30;57.40;;;;;;5073059;28;20183;-61
2023/05/19 04:36:35;;;;;;;2.20;2.00;;;17.30;57.40;;;;;;5073387;28;20184;-60
2023/05/19 04:39:08;;;;;;;2.55;1.90;;;17.30;58.10;;;;;;5071443;28;20210;-60
2023/05/19 04:41:34;;;;;;;2.10;1.90;;;17.30;57.40;;;;;;5073404;28;20189;-60
2023/05/19 04:43:59;;;;;;;3.72;1.95;;;17.30;57.30;;;;;;5073195;28;20170;-60
2023/05/19 04:46:25;;;;;;;2.38;1.85;;;17.30;57.30;;;;;;5072286;28;20162;-60
2023/05/19 04:48:52;;;;;;;2.85;1.90;;;17.30;57.30;;;;;;5073073;28;20231;-60
2023/05/19 04:51:18;;;;;;;2.10;1.80;;;17.30;57.40;;;;;;5072824;28;20171;-60
2023/05/19 04:53:44;;;;;;;2.30;2.03;;;17.30;57.30;;;;;;5072333;28;20271;-59
2023/05/19 04:56:13;;;;;;;2.22;1.60;;;17.30;57.40;;;;;;5072657;28;20653;-60
2023/05/19 04:58:40;;;;;;;2.47;2.28;;;17.30;57.40;;;;;;5072873;28;20280;-59
2023/05/19 05:01:05;;;;;;;2.53;2.13;;;17.30;57.30;;;;;;5072331;28;20252;-60
2023/05/19 05:03:33;;;;;;;3.03;2.13;;;17.30;57.30;;;;;;5073508;28;20212;-62
2023/05/19 05:05:58;;;;;;;2.70;2.08;;;17.30;57.30;;;;;;5072415;28;20182;-60
2023/05/19 05:08:24;;;;;;;3.20;1.90;;;17.30;57.30;;;;;;5072708;28;20176;-60
2023/05/19 05:10:51;;;;;;;3.10;1.90;;;17.30;57.30;;;;;;5073136;28;20251;-59
2023/05/19 05:13:20;;;;;;;2.13;1.70;;;17.30;57.20;;;;;;5072015;28;20324;-59
2023/05/19 05:15:45;;;;;;;2.83;1.90;;;17.30;57.30;;;;;;5071692;28;20178;-59
2023/05/19 05:18:12;;;;;;;1.80;1.70;;;17.30;57.30;;;;;;5072500;28;20178;-60
2023/05/19 05:20:38;;;;;;;3.50;1.95;;;17.30;57.30;;;;;;5072089;28;20193;-59
2023/05/19 05:23:03;;;;;;;3.30;2.08;;;17.30;57.30;;;;;;5072356;28;20178;-59
2023/05/19 05:25:29;;;;;;;2.10;1.83;;;17.30;57.20;;;;;;5072665;28;20204;-59
2023/05/19 05:27:55;;;;;;;1.70;1.60;;;17.30;57.30;;;;;;5072042;28;20536;-60
2023/05/19 05:30:20;;;;;;;3.70;2.40;;;17.30;57.30;;;;;;5072551;28;20171;-60
2023/05/19 05:32:46;;;;;;;2.70;1.63;;;17.30;57.30;;;;;;5072621;28;20244;-61
2023/05/19 05:35:11;;;;;;;2.28;1.90;;;17.30;57.30;;;;;;5071469;28;20719;-61
2023/05/19 05:37:37;;;;;;;2.15;1.73;;;17.30;57.30;;;;;;5072778;28;20656;-60
2023/05/19 05:40:05;;;;;;;2.60;2.00;;;17.30;57.30;;;;;;5072763;28;20606;-60
2023/05/19 05:42:31;;;;;;;1.73;1.42;;;17.30;57.30;;;;;;5072090;28;20178;-60
2023/05/19 05:44:56;;;;;;;2.13;1.80;;;17.30;57.30;;;;;;5072578;28;20633;-60
2023/05/19 05:47:22;;;;;;;2.63;2.40;;;17.30;57.20;;;;;;5072212;28;20177;-59
2023/05/19 05:49:48;;;;;;;3.42;1.98;;;17.30;57.30;;;;;;5072019;28;20182;-60
2023/05/19 05:52:13;;;;;;;2.08;1.85;;;17.30;57.30;;;;;;5070966;28;20201;-59
2023/05/19 05:54:39;;;;;;;1.85;1.73;;;17.30;57.30;;;;;;5071521;28;20228;-59
2023/05/19 05:57:05;;;;;;;2.28;2.08;;;17.30;57.30;;;;;;5075242;28;20174;-59
2023/05/19 05:59:32;;;;;;;2.10;1.90;;;17.30;57.30;;;;;;5076290;28;20306;-60
2023/05/19 06:01:58;;;;;;;2.03;1.85;;;17.30;57.20;;;;;;5076409;28;20179;-59
2023/05/19 06:04:24;;;;;;;2.20;2.00;;;17.40;57.30;;;;;;5075179;28;20181;-60
2023/05/19 06:06:51;;;;;;;2.25;1.65;;;17.40;57.20;;;;;;5076142;28;20548;-59
2023/05/19 06:09:17;;;;;;;2.30;2.00;;;17.40;57.20;;;;;;5075391;28;20189;-59
2023/05/19 06:11:42;;;;;;;1.95;1.70;;;17.40;57.20;;;;;;5076191;28;20170;-60
2023/05/19 06:14:08;;;;;;;1.70;1.60;;;17.30;57.10;;;;;;5075902;28;20174;-60
2023/05/19 06:16:33;;;;;;;2.35;2.00;;;17.40;57.10;;;;;;5075295;28;20175;-59
2023/05/19 06:18:59;;;;;;;1.90;1.67;;;17.40;57.10;;;;;;5076082;28;20572;-59
2023/05/19 06:21:24;;;;;;;1.85;1.75;;;17.40;57.10;;;;;;5075382;28;20182;-59
2023/05/19 06:23:50;;;;;;;2.33;1.75;;;17.40;57.00;;;;;;5075790;28;20624;-59
2023/05/19 06:26:15;;;;;;;1.92;1.80;;;17.40;57.10;;;;;;5075686;28;20167;-59
2023/05/19 06:28:41;;;;;;;2.03;1.83;;;17.40;57.10;;;;;;5075611;28;20178;-60
2023/05/19 06:31:06;;;;;;;3.05;1.70;;;17.40;57.00;;;;;;5074665;28;20174;-61
2023/05/19 06:33:32;;;;;;;1.60;1.50;;;17.40;57.00;;;;;;5075743;28;20181;-60
2023/05/19 06:35:58;;;;;;;2.05;1.58;;;17.40;57.00;;;;;;5075434;28;20222;-60
2023/05/19 06:38:24;;;;;;;1.73;1.60;;;17.40;57.10;;;;;;5074731;28;20253;-60
2023/05/19 06:40:49;;;;;;;2.30;1.95;;;17.40;57.00;;;;;;5075638;28;20277;-60
2023/05/19 06:43:15;;;;;;;2.63;1.80;;;17.40;56.90;;;;;;5075279;28;20638;-60
2023/05/19 06:45:40;;;;;;;1.60;1.50;;;17.50;56.90;;;;;;5074756;28;20179;-59
2023/05/19 06:48:06;;;;;;;1.70;1.60;;;17.50;56.90;;;;;;5075210;28;20201;-59
2023/05/19 06:50:31;;;;;;;2.33;2.13;;;17.50;56.90;;;;;;5075318;28;20174;-60
2023/05/19 06:52:57;;;;;;;2.05;1.85;;;17.50;56.90;;;;;;5074847;28;20201;-60
2023/05/19 06:55:22;;;;;;;2.55;1.50;;;17.50;56.90;;;;;;5075180;28;20173;-60
2023/05/19 06:57:48;;;;;;;1.70;1.60;;;17.50;56.90;;;;;;5075308;28;20174;-61
2023/05/19 07:00:15;;;;;;;1.70;1.60;;;17.40;56.80;;;;;;5074201;28;20293;-60
2023/05/19 07:02:41;;;;;;;2.38;1.70;;;17.50;56.80;;;;;;5075148;28;20181;-60
2023/05/19 07:05:07;;;;;;;2.13;1.73;;;17.50;56.80;;;;;;5074865;28;20556;-61
2023/05/19 07:07:32;;;;;;;2.13;1.90;;;17.50;56.80;;;;;;5074604;28;20625;-60
2023/05/19 07:09:58;;;;;;;2.22;2.00;;;17.60;56.80;;;;;;5075340;28;20178;-61
2023/05/19 07:12:25;;;;;;;1.60;1.48;;;17.60;56.80;;;;;;5074717;28;20652;-61
2023/05/19 07:14:51;;;;;;;2.55;1.58;;;17.60;56.80;;;;;;5074156;28;20664;-61
2023/05/19 07:17:16;;;;;;;2.30;1.70;;;17.60;56.80;;;;;;5074684;28;20212;-61
2023/05/19 07:19:42;;;;;;;2.15;1.58;;;17.60;56.80;;;;;;5073805;28;20249;-61
2023/05/19 07:22:07;;;;;;;2.55;1.52;;;17.60;56.80;;;;;;5074110;28;20263;-61
2023/05/19 07:24:33;;;;;;;2.22;1.77;;;17.70;56.80;;;;;;5074756;28;20202;-61
2023/05/19 07:26:58;;;;;;;3.15;2.03;;;17.70;56.90;;;;;;5073935;28;20166;-61
2023/05/19 07:29:24;;;;;;;2.63;1.60;;;17.70;56.90;;;;;;5074221;28;20181;-62
2023/05/19 07:31:56;;;;;;;2.47;1.65;;;17.70;56.80;;;;;;5074480;28;20175;-63
2023/05/19 07:34:24;;;;;;;1.70;1.60;;;17.70;56.90;;;;;;5073366;28;20645;-63
2023/05/19 07:36:53;;;;;;;2.72;1.90;;;17.70;56.90;;;;;;5074812;28;20177;-62
2023/05/19 07:39:18;;;;;;;7.22;1.80;;;17.70;56.80;;;;;;5074367;28;20580;-62
2023/05/19 07:41:51;;;;;;;3.55;1.60;;;17.80;57.00;;;;;;5073835;28;20644;-62
2023/05/19 07:44:17;;;;;;;5.10;1.70;;;17.80;57.00;;;;;;5074069;28;20182;-62
2023/05/19 07:46:42;;;;;;;4.93;1.80;;;17.80;56.80;;;;;;5074247;28;20526;-62
2023/05/19 07:49:08;;;;;;;5.05;1.70;;;17.80;56.90;;;;;;5073535;28;20273;-62
2023/05/19 07:51:33;;;;;;;5.65;2.10;;;17.80;56.90;;;;;;5074246;28;20292;-61
2023/05/19 07:53:59;;;;;;;4.50;2.03;;;17.80;56.90;;;;;;5074322;28;20202;-62
2023/05/19 07:56:24;;;;;;;3.88;2.03;;;17.80;56.90;;;;;;5073294;28;20178;-62
2023/05/19 07:58:50;;;;;;;3.28;1.75;;;17.90;56.90;;;;;;5074082;28;20209;-62
2023/05/19 08:01:16;;;;;;;2.80;1.90;;;17.90;56.90;;;;;;5073766;28;20549;-62
2023/05/19 08:03:41;;;;;;;3.50;1.60;;;17.90;57.50;;;;;;5073422;28;20222;-62
2023/05/19 08:06:07;;;;;;;3.67;1.70;;;17.90;56.90;;;;;;5073808;28;20174;-62
2023/05/19 08:08:32;;;;;;;1.75;1.63;;;17.90;56.90;;;;;;5073991;28;20197;-61
2023/05/19 08:11:02;;;;;;;2.95;1.70;;;17.90;56.90;;;;;;5073064;28;20167;-61
2023/05/19 08:13:27;;;;;;;2.30;1.40;;;17.90;56.90;;;;;;5073536;28;20183;-61
2023/05/19 08:15:58;;;;;;;2.15;1.95;;;17.90;56.80;;;;;;5072893;28;20177;-61
2023/05/19 08:18:26;;;;;;;2.00;1.60;;;17.90;56.80;;;;;;5073003;28;20199;-61
2023/05/19 08:20:52;;;;;;;3.22;2.00;;;17.90;56.80;;;;;;5073778;28;20257;-61
2023/05/19 08:23:17;;;;;;;3.65;1.70;;;18.00;57.40;;;;;;5072561;28;20673;-61
2023/05/19 08:25:43;;;;;;;2.92;1.65;;;18.00;56.80;;;;;;5073502;28;20206;-61
2023/05/19 08:28:09;;;;;;;3.20;1.52;;;18.00;56.80;;;;;;5073240;28;20178;-62
2023/05/19 08:30:34;;;;;;;2.33;1.70;;;18.00;56.80;;;;;;5072737;28;20665;-63
2023/05/19 08:33:00;;;;;;;1.80;1.52;;;18.10;56.90;;;;;;5073348;28;20186;-63
2023/05/19 08:35:25;;;;;;;5.22;1.90;;;18.10;56.80;;;;;;5072977;28;20226;-62
2023/05/19 08:37:51;;;;;;;2.78;1.55;;;18.10;56.80;;;;;;5072572;28;20571;-62
2023/05/19 08:40:17;;;;;;;1.95;1.70;;;18.10;56.80;;;;;;5073052;28;20554;-62
2023/05/19 08:42:46;;;;;;;3.22;1.67;;;18.20;56.80;;;;;;5072875;28;20167;-63
2023/05/19 08:45:11;;;;;;;2.63;1.58;;;18.20;56.90;;;;;;5071964;28;20174;-62
2023/05/19 08:47:37;;;;;;;2.33;1.50;;;18.20;57.50;;;;;;5073372;28;20178;-62
2023/05/19 08:50:06;;;;;;;2.45;1.50;;;18.20;56.90;;;;;;5072164;28;20269;-62
2023/05/19 08:52:44;;;;;;;3.17;1.85;;;18.20;56.60;;;;;;5072456;28;20174;-61
2023/05/19 08:55:27;;;;;;;2.42;1.48;;;18.30;56.80;;;;;;5071821;28;20315;-62
2023/05/19 08:57:53;;;;;;;2.55;1.50;;;18.30;56.80;;;;;;5072990;28;20231;-62
2023/05/19 09:00:19;;;;;;;2.63;1.50;;;18.30;56.90;;;;;;5070451;28;20209;-62
2023/05/19 09:02:46;;;;;;;5.55;1.77;;;18.30;56.90;;;;;;5072162;28;20175;-62
2023/05/19 09:05:12;;;;;;;2.33;1.42;;;18.40;56.90;;;;;;5070750;28;20178;-63
2023/05/19 09:07:37;;;;;;;1.83;1.50;;;18.40;56.90;;;;;;5072888;28;20193;-62
2023/05/19 09:10:04;;;;;;;2.97;1.75;;;18.40;56.90;;;;;;5071671;28;20178;-63
2023/05/19 09:12:30;;;;;;;4.45;1.60;;;18.40;57.00;;;;;;5072420;28;20572;-61
2023/05/19 09:14:56;;;;;;;3.53;2.05;;;18.40;57.00;;;;;;5071967;28;20704;-63
2023/05/19 09:17:22;;;;;;;1.65;1.35;;;18.40;57.00;;;;;;5072715;28;20177;-61
2023/05/19 09:19:48;;;;;;;3.58;1.55;;;18.40;56.90;;;;;;5071993;28;20214;-62
2023/05/19 09:22:17;;;;;;;2.75;1.52;;;18.50;56.80;;;;;;5072369;28;20185;-61
2023/05/19 09:24:43;;;;;;;4.63;2.08;;;18.50;56.80;;;;;;5072641;28;20644;-61
2023/05/19 09:27:09;;;;;;;3.00;1.67;;;18.50;56.90;;;;;;5070860;28;20174;-62
2023/05/19 09:29:34;;;;;;;3.13;1.67;;;18.50;57.00;;;;;;5072898;28;20641;-63
2023/05/19 09:32:03;;;;;;;1.58;1.23;;;18.60;57.00;;;;;;5076758;28;20240;-62
2023/05/19 09:34:28;;;;;;;4.10;1.60;;;18.60;57.00;;;;;;5075558;28;20218;-63
2023/05/19 09:36:54;;;;;;;2.40;1.45;;;18.70;57.10;;;;;;5076459;28;20177;-62
2023/05/19 09:39:20;;;;;;;4.45;1.65;;;18.60;57.00;;;;;;5076539;28;20214;-62
2023/05/19 09:41:46;;;;;;;2.08;1.65;;;18.60;57.00;;;;;;5075908;28;20178;-61
2023/05/19 09:44:31;;;;;;;2.33;1.45;;;18.60;57.00;;;;;;5076546;28;20178;-62
2023/05/19 09:46:57;;;;;;;3.58;1.85;;;18.60;57.00;;;;;;5076470;28;20692;-62
2023/05/19 09:49:24;;;;;;;3.13;1.83;;;18.70;57.10;;;;;;5075596;28;20321;-62
2023/05/19 09:51:52;;;;;;;3.13;1.27;;;18.70;57.10;;;;;;5076718;28;20178;-62
2023/05/19 09:54:19;;;;;;;3.15;1.77;;;18.70;57.10;;;;;;5075698;28;20210;-62
2023/05/19 09:56:44;;;;;;;5.22;1.90;;;18.70;57.10;;;;;;5075389;28;20261;-63
2023/05/19 09:59:10;;;;;;;3.88;2.05;;;18.70;57.10;;;;;;5075932;28;20642;-63
2023/05/19 10:01:36;;;;;;;3.40;1.75;;;18.70;57.10;;;;;;5074567;28;20186;-62
2023/05/19 10:04:01;;;;;;;2.83;1.65;;;18.80;57.20;;;;;;5075209;28;20190;-63
2023/05/19 10:06:27;;;;;;;2.83;1.50;;;18.70;57.10;;;;;;5074759;28;20625;-63
2023/05/19 10:08:53;;;;;;;3.40;1.90;;;18.70;57.20;;;;;;5074162;28;20167;-62
2023/05/19 10:11:19;;;;;;;3.05;1.88;;;18.70;57.20;;;;;;5074818;28;20541;-61
2023/05/19 10:13:44;;;;;;;3.30;1.48;;;18.70;57.10;;;;;;5074499;28;20181;-61
2023/05/19 10:16:10;;;;;;;1.70;1.52;;;18.70;57.10;;;;;;5075190;28;20170;-61
2023/05/19 10:18:35;;;;;;;1.92;1.55;;;18.70;57.10;;;;;;5074682;28;20655;-61
2023/05/19 10:21:01;;;;;;;3.95;1.85;;;18.70;57.10;;;;;;5075744;28;20229;-62
2023/05/19 10:23:26;;;;;;;3.95;1.30;;;18.80;57.10;;;;;;5073798;28;20261;-61
2023/05/19 10:25:55;;;;;;;2.42;1.30;;;18.80;57.10;;;;;;5075587;28;20262;-62
2023/05/19 10:28:22;;;;;;;4.00;1.30;;;18.70;57.10;;;;;;5074396;28;20170;-62
2023/05/19 10:30:49;;;;;;;3.70;1.67;;;18.80;57.10;;;;;;5075122;28;20171;-62
2023/05/19 10:33:16;;;;;;;2.22;1.60;;;18.80;57.10;;;;;;5074187;28;20182;-63
2023/05/19 10:35:42;;;;;;;4.00;1.52;;;18.80;57.00;;;;;;5075511;28;20225;-63
2023/05/19 10:38:32;;;;;;;2.95;1.83;;;18.80;57.10;;;;;;5074589;28;20175;-63
2023/05/19 10:41:10;;;;;;;2.72;1.50;;;18.80;57.00;;;;;;5074261;28;20189;-62
2023/05/19 10:43:38;;;;;;;2.92;1.83;;;18.80;57.00;;;;;;5074840;28;20174;-62
2023/05/19 10:46:05;;;;;;;3.28;1.30;;;18.80;56.90;;;;;;5075308;28;20261;-62
2023/05/19 10:48:32;;;;;;;4.15;1.40;;;18.80;56.90;;;;;;5075454;28;20182;-62
2023/05/19 10:50:57;;;;;;;3.05;1.70;;;18.80;56.90;;;;;;5074572;28;20645;-62
2023/05/19 10:53:30;;;;;;;3.30;1.67;;;18.90;56.80;;;;;;5074077;28;20174;-62
2023/05/19 10:55:57;;;;;;;2.35;1.67;;;18.90;56.70;;;;;;5074355;28;20175;-62
2023/05/19 10:58:37;;;;;;;3.25;1.75;;;19.00;56.70;;;;;;5074357;28;20194;-64
2023/05/19 11:01:06;;;;;;;4.03;1.40;;;19.00;56.60;;;;;;5075493;28;20613;-64
2023/05/19 11:03:46;;;;;;;2.90;1.60;;;19.10;56.60;;;;;;5075132;28;20171;-63
2023/05/19 11:06:35;;;;;;;6.47;1.65;;;19.10;56.60;;;;;;5073331;28;20261;-64
2023/05/19 11:09:09;;;;;;;3.60;1.75;;;19.10;56.60;;;;;;5074938;28;20205;-63
2023/05/19 11:11:43;;;;;;;5.10;1.83;;;19.20;56.60;;;;;;5075192;28;20175;-62
2023/05/19 11:14:10;;;;;;;2.25;1.60;;;19.10;56.60;;;;;;5074582;28;20261;-63
2023/05/19 11:16:35;;;;;;;3.53;1.60;;;19.20;56.60;;;;;;5073894;28;20533;-63
2023/05/19 11:19:01;;;;;;;3.38;1.48;;;19.10;56.60;;;;;;5072955;28;20210;-63
2023/05/19 11:21:54;;;;;;;2.50;1.35;;;19.20;57.30;;;;;;5074671;28;20216;-63
2023/05/19 11:24:45;;;;;;;4.88;1.50;;;19.20;56.60;;;;;;5074723;28;20220;-63
2023/05/19 11:27:31;;;;;;;6.75;1.67;;;19.20;56.70;;;;;;5073915;28;20182;-64
2023/05/19 11:30:13;;;;;;;3.10;1.58;;;19.20;56.60;;;;;;5074809;28;20316;-64
2023/05/19 11:32:41;;;;;;;6.72;1.90;;;19.20;56.50;;;;;;5074802;28;20170;-65
2023/05/19 11:35:07;;;;;;;1.98;1.52;;;19.20;57.00;;;;;;5072557;28;20233;-65
2023/05/19 11:37:33;;;;;;;3.83;1.80;;;19.20;56.30;;;;;;5074544;28;20199;-64
2023/05/19 11:40:08;;;;;;;2.22;1.50;;;19.20;56.20;;;;;;5073647;28;20665;-64
2023/05/19 11:42:34;;;;;;;4.22;1.88;;;19.20;56.20;;;;;;5074269;28;20600;-64
2023/05/19 11:45:00;;;;;;;3.60;1.45;;;19.20;56.10;;;;;;5074563;28;20186;-65
2023/05/19 11:47:26;;;;;;;1.85;1.55;;;19.20;56.10;;;;;;5073338;28;20257;-64
2023/05/19 11:49:52;;;;;;;3.45;1.70;;;19.30;56.20;;;;;;5073243;28;20173;-64
2023/05/19 11:52:20;;;;;;;1.67;1.40;;;19.20;56.10;;;;;;5072442;28;20167;-63
2023/05/19 11:54:47;;;;;;;4.05;1.52;;;19.20;56.10;;;;;;5073098;28;20209;-64
2023/05/19 11:57:12;;;;;;;2.33;1.42;;;19.20;56.00;;;;;;5074038;28;20528;-64
2023/05/19 11:59:42;;;;;;;2.80;1.60;;;19.30;56.10;;;;;;5074107;28;20210;-64
2023/05/19 12:02:20;;;;;;;2.10;1.40;;;19.30;56.10;;;;;;5073087;28;20243;-65
2023/05/19 12:04:46;;;;;;;2.58;1.50;;;19.30;55.90;;;;;;5073997;28;20181;-65
2023/05/19 12:07:13;;;;;;;3.60;1.33;;;19.30;55.80;;;;;;5073861;28;20516;-64
2023/05/19 12:09:39;;;;;;;1.60;1.30;;;19.30;55.80;;;;;;5073407;28;20203;-64
2023/05/19 12:12:04;;;;;;;2.53;1.55;;;19.20;55.90;;;;;;5073797;28;20201;-64
2023/05/19 12:14:30;;;;;;;1.48;1.30;;;19.30;55.90;;;;;;5072758;28;20185;-64
2023/05/19 12:16:56;;;;;;;1.88;1.10;;;19.30;55.80;;;;;;5073136;28;20253;-64
2023/05/19 12:19:22;;;;;;;2.03;1.35;;;19.40;55.80;;;;;;5073312;28;20213;-64
2023/05/19 12:21:48;;;;;;;3.55;1.42;;;19.40;55.70;;;;;;5072391;28;20230;-64
2023/05/19 12:24:13;;;;;;;3.05;1.58;;;19.40;55.60;;;;;;5071541;28;20179;-64
2023/05/19 12:26:39;;;;;;;2.28;1.42;;;19.40;55.50;;;;;;5073737;28;20188;-64
2023/05/19 12:29:06;;;;;;;2.63;1.50;;;19.40;55.40;;;;;;5072516;28;20255;-65
2023/05/19 12:31:32;;;;;;;3.28;1.40;;;19.40;55.40;;;;;;5073494;28;20181;-65
2023/05/19 12:33:58;;;;;;;2.85;1.38;;;19.40;55.40;;;;;;5073315;28;20181;-65
2023/05/19 12:36:24;;;;;;;2.47;1.58;;;19.40;55.40;;;;;;5072054;28;20226;-65
2023/05/19 12:38:53;;;;;;;2.13;1.65;;;19.50;55.20;;;;;;5071996;28;20209;-64
2023/05/19 12:41:19;;;;;;;2.75;1.30;;;19.40;55.30;;;;;;5071674;28;20552;-64
2023/05/19 12:43:45;;;;;;;2.53;1.42;;;19.50;55.20;;;;;;5072595;28;20226;-64
2023/05/19 12:46:11;;;;;;;2.03;1.40;;;19.50;55.10;;;;;;5073136;28;20205;-65
2023/05/19 12:48:43;;;;;;;1.83;1.35;;;19.50;54.90;;;;;;5073362;28;20173;-65
2023/05/19 12:51:09;;;;;;;1.98;1.30;;;19.50;55.00;;;;;;5072453;28;20223;-64